Time;durP1;ratioP1;P1;durP2;ratioP2;P2;SDS_P1;SDS_P2;PMS_P1;PMS_P2;Temp;Humidity;BMP_temperature;BMP_pressure;BME280_temperature;BME280_humidity;BME280_pressure;Samples;Min_cycle;Max_cycle;Signal;HPM_P1;HPM_P2
2023/04/19 00:01:13;;;;;;;10.70;7.45;;;;;;;10.13;100.00;99996.53;4991816;28;20492;-71
2023/04/19 00:03:38;;;;;;;8.18;6.45;;;;;;;9.67;100.00;99946.09;4992946;28;20465;-71
2023/04/19 00:06:04;;;;;;;16.00;7.30;;;;;;;9.96;100.00;99974.50;4992717;28;20031;-75
2023/04/19 00:08:29;;;;;;;8.80;6.30;;;;;;;10.09;100.00;99994.69;4991617;28;20018;-71
2023/04/19 00:10:55;;;;;;;6.50;5.72;;;;;;;10.00;100.00;99986.66;4991856;28;20045;-71
2023/04/19 00:13:20;;;;;;;7.45;5.97;;;;;;;9.95;100.00;99983.06;4990957;28;20026;-69
2023/04/19 00:15:46;;;;;;;8.13;6.68;;;;;;;9.93;100.00;99985.59;4992400;28;20038;-70
2023/04/19 00:18:11;;;;;;;7.80;6.22;;;;;;;9.90;100.00;99980.34;4992471;28;20037;-71
2023/04/19 00:20:38;;;;;;;8.48;6.30;;;;;;;9.92;100.00;99976.13;4991473;28;20066;-72
2023/04/19 00:23:03;;;;;;;6.78;5.65;;;;;;;10.02;100.00;99982.44;4992466;28;20078;-68
2023/04/19 00:25:30;;;;;;;7.82;5.82;;;;;;;9.95;100.00;99957.28;4992481;28;20489;-72
2023/04/19 00:27:56;;;;;;;8.73;5.15;;;;;;;9.79;100.00;99937.88;4992352;28;20026;-72
2023/04/19 00:30:21;;;;;;;7.50;5.75;;;;;;;9.87;100.00;99965.66;4992635;28;20113;-69
2023/04/19 00:32:47;;;;;;;8.45;4.93;;;;;;;9.88;100.00;99972.56;4992050;28;20165;-71
2023/04/19 00:35:13;;;;;;;7.97;5.65;;;;;;;9.78;100.00;99965.38;4992472;28;20026;-74
2023/04/19 00:37:39;;;;;;;6.90;5.00;;;;;;;9.75;100.00;99970.41;4992374;28;20460;-71
2023/04/19 00:40:05;;;;;;;5.85;4.47;;;;;;;9.73;100.00;99966.91;4992217;28;20034;-70
2023/04/19 00:42:30;;;;;;;6.35;4.88;;;;;;;9.18;100.00;99861.25;5005773;28;20125;-71
2023/04/19 00:44:56;;;;;;;6.13;4.88;;;;;;;9.90;100.00;99969.16;4992289;28;20451;-69
2023/04/19 00:47:21;;;;;;;6.32;4.85;;;;;;;10.05;100.00;99967.06;4992341;28;20026;-70
2023/04/19 00:49:47;;;;;;;9.02;5.03;;;;;;;10.12;100.00;99969.00;4990855;28;20027;-74
2023/04/19 00:52:13;;;;;;;5.80;4.70;;;;;;;9.84;100.00;99937.22;4992089;28;20745;-70
2023/04/19 00:54:40;;;;;;;5.20;4.40;;;;;;;10.13;100.00;99957.84;4991982;28;20108;-71
2023/04/19 00:57:05;;;;;;;6.30;5.30;;;;;;;10.13;100.00;99959.53;4991179;28;20417;-75
2023/04/19 00:59:33;;;;;;;8.07;5.65;;;;;;;10.26;100.00;99971.13;4992242;28;20034;-70
2023/04/19 01:01:58;;;;;;;6.78;5.18;;;;;;;10.01;100.00;99923.94;4991708;28;20038;-69
2023/04/19 01:04:24;;;;;;;8.68;5.18;;;;;;;10.29;100.00;99973.78;4991577;28;20030;-71
2023/04/19 01:06:50;;;;;;;9.80;5.32;;;;;;;10.29;100.00;99950.56;4991465;28;20369;-75
2023/04/19 01:09:15;;;;;;;7.43;5.10;;;;;;;10.28;100.00;99961.72;4991570;28;20473;-71
2023/04/19 01:11:41;;;;;;;6.53;4.90;;;;;;;10.12;100.00;99916.50;4990924;28;20030;-70
2023/04/19 01:14:07;;;;;;;7.88;5.30;;;;;;;10.28;100.00;99957.44;4991105;28;20069;-69
2023/04/19 01:16:32;;;;;;;7.97;5.57;;;;;;;10.15;100.00;99926.94;4988803;28;20045;-71
2023/04/19 01:18:58;;;;;;;6.07;4.82;;;;;;;10.28;100.00;99941.97;4991565;28;20031;-71
2023/04/19 01:21:23;;;;;;;6.25;4.70;;;;;;;10.01;100.00;99911.06;4987765;28;20038;-71
2023/04/19 01:23:49;;;;;;;6.85;4.63;;;;;;;10.29;100.00;99956.63;4990405;28;20055;-72
2023/04/19 01:26:15;;;;;;;7.95;4.60;;;;;;;10.37;100.00;99951.72;4991280;28;20041;-72
2023/04/19 01:28:40;;;;;;;5.80;4.57;;;;;;;10.46;100.00;99956.25;4989982;28;20041;-71
2023/04/19 01:31:06;;;;;;;6.30;4.22;;;;;;;10.36;100.00;99939.63;4990965;28;20409;-73
2023/04/19 01:33:31;;;;;;;11.48;4.43;;;;;;;10.29;100.00;99948.88;4982948;28;20029;-72
2023/04/19 01:35:57;;;;;;;6.65;3.90;;;;;;;10.24;100.00;99944.41;4991262;28;20037;-71
2023/04/19 01:38:22;;;;;;;7.18;4.07;;;;;;;10.14;100.00;99941.56;4991276;28;20117;-71
2023/04/19 01:40:47;;;;;;;5.07;3.03;;;;;;;9.99;100.00;99951.38;4990827;28;20451;-70
2023/04/19 01:43:15;;;;;;;4.53;3.60;;;;;;;10.02;100.00;99948.91;4991538;28;20038;-71
2023/04/19 01:45:41;;;;;;;8.85;4.65;;;;;;;10.07;100.00;99944.78;4991558;28;20404;-69
2023/04/19 01:48:06;;;;;;;5.82;4.50;;;;;;;10.16;100.00;99950.19;4991450;28;20037;-73
2023/04/19 01:50:32;;;;;;;6.22;4.25;;;;;;;10.01;100.00;99900.75;4990292;28;20030;-71
2023/04/19 01:52:58;;;;;;;5.53;4.53;;;;;;;10.32;100.00;99945.50;4991212;28;20138;-72
2023/04/19 01:55:23;;;;;;;6.43;4.57;;;;;;;10.31;100.00;99936.88;4991454;28;20128;-71
2023/04/19 01:57:48;;;;;;;5.60;4.55;;;;;;;10.38;100.00;99940.56;4991423;28;20077;-71
2023/04/19 02:00:16;;;;;;;5.82;3.42;;;;;;;10.43;100.00;99941.56;4991576;28;20108;-70
2023/04/19 02:02:42;;;;;;;6.60;3.92;;;;;;;10.44;100.00;99938.16;4991115;28;20081;-73
2023/04/19 02:05:07;;;;;;;4.43;3.17;;;;;;;10.24;100.00;99934.06;4988894;28;20516;-72
2023/04/19 02:07:33;;;;;;;4.93;3.53;;;;;;;10.24;100.00;99934.94;4991252;28;20080;-72
2023/04/19 02:09:59;;;;;;;8.20;3.40;;;;;;;10.15;100.00;99942.41;4991283;28;20477;-73
2023/04/19 02:12:27;;;;;;;4.55;3.28;;;;;;;10.12;100.00;99939.72;4991176;28;20026;-73
2023/04/19 02:14:56;;;;;;;5.13;2.80;;;;;;;10.11;100.00;99943.16;4990949;28;20476;-69
2023/04/19 02:17:22;;;;;;;3.10;2.30;;;;;;;9.72;100.00;99893.00;4991225;28;20116;-70
2023/04/19 02:19:47;;;;;;;2.70;2.10;;;;;;;9.96;100.00;99934.13;4991228;28;20034;-72
2023/04/19 02:22:13;;;;;;;5.00;2.22;;;;;;;9.83;100.00;99924.25;4990820;28;20042;-75
2023/04/19 02:24:38;;;;;;;4.43;1.80;;;;;;;9.90;100.00;99940.81;4990410;28;20141;-73
2023/04/19 02:27:04;;;;;;;4.10;1.88;;;;;;;9.72;100.00;99911.03;4991097;28;20039;-75
2023/04/19 02:29:30;;;;;;;6.07;2.22;;;;;;;9.77;100.00;99935.25;4990831;28;20113;-74
2023/04/19 02:31:55;;;;;;;3.95;2.22;;;;;;;9.47;100.00;99886.19;4991184;28;20033;-70
2023/04/19 02:34:20;;;;;;;3.53;2.40;;;;;;;9.79;100.00;99920.69;4991844;28;20037;-72
2023/04/19 02:36:46;;;;;;;3.65;2.00;;;;;;;9.84;100.00;99929.47;4994852;28;20077;-73
2023/04/19 02:39:11;;;;;;;4.15;2.28;;;;;;;9.80;100.00;99931.91;4994580;28;20473;-72
2023/04/19 02:41:37;;;;;;;4.28;1.77;;;;;;;9.68;100.00;99906.59;4994969;28;20033;-72
2023/04/19 02:44:03;;;;;;;1.38;1.23;;;;;;;9.79;100.00;99925.00;4993444;28;20026;-71
2023/04/19 02:46:28;;;;;;;2.30;1.70;;;;;;;9.80;100.00;99927.59;4994922;28;20110;-72
2023/04/19 02:48:54;;;;;;;3.55;2.20;;;;;;;9.74;100.00;99926.53;4994739;28;20105;-71
2023/04/19 02:51:19;;;;;;;2.17;1.55;;;;;;;9.75;100.00;99928.31;4994958;28;20815;-72
2023/04/19 02:53:44;;;;;;;7.40;2.13;;;;;;;9.77;100.00;99936.94;4993948;28;20026;-73
2023/04/19 02:56:10;;;;;;;1.52;1.30;;;;;;;9.64;100.00;99927.97;4994210;28;20496;-69
2023/04/19 02:58:35;;;;;;;2.05;1.40;;;;;;;9.64;100.00;99928.81;4994620;28;20039;-70
2023/04/19 03:01:01;;;;;;;2.30;1.40;;;;;;;9.63;100.00;99928.78;4988185;28;20046;-73
2023/04/19 03:03:26;;;;;;;2.00;1.38;;;;;;;9.39;100.00;99888.50;4993323;28;20093;-72
2023/04/19 03:05:52;;;;;;;3.33;1.73;;;;;;;9.46;100.00;99892.16;4994361;28;20034;-73
2023/04/19 03:08:17;;;;;;;4.32;1.85;;;;;;;9.79;100.00;99932.72;4994326;28;20062;-73
2023/04/19 03:10:43;;;;;;;3.38;1.88;;;;;;;9.83;100.00;99932.88;4994213;28;20037;-73
2023/04/19 03:13:08;;;;;;;2.53;1.80;;;;;;;9.83;100.00;99916.50;4993102;28;20030;-72
2023/04/19 03:15:34;;;;;;;2.90;1.58;;;;;;;9.92;100.00;99940.03;4994385;28;20030;-73
2023/04/19 03:17:59;;;;;;;4.82;1.38;;;;;;;9.85;100.00;99920.88;4994325;28;20107;-73
2023/04/19 03:20:25;;;;;;;2.55;1.70;;;;;;;9.98;100.00;99935.06;4994341;28;20168;-73
2023/04/19 03:22:51;;;;;;;5.05;2.17;;;;;;;9.85;100.00;99920.03;4994050;28;20104;-73
2023/04/19 03:25:16;;;;;;;3.95;2.00;;;;;;;9.94;100.00;99922.00;4994269;28;20037;-73
2023/04/19 03:27:44;;;;;;;4.38;1.90;;;;;;;9.98;100.00;99932.47;4994270;28;20086;-73
2023/04/19 03:30:11;;;;;;;7.30;2.63;;;;;;;10.00;100.00;99924.78;4994169;28;20404;-73
2023/04/19 03:32:36;;;;;;;5.60;2.30;;;;;;;10.09;100.00;99940.50;4993753;28;20104;-73
2023/04/19 03:35:02;;;;;;;4.07;1.85;;;;;;;10.12;100.00;99929.41;4994029;28;20452;-74
2023/04/19 03:37:27;;;;;;;5.68;2.40;;;;;;;10.09;100.00;99937.06;4993825;28;20810;-74
2023/04/19 03:39:53;;;;;;;5.05;2.30;;;;;;;10.11;100.00;99933.72;4994072;28;20038;-73
2023/04/19 03:42:18;;;;;;;7.00;2.30;;;;;;;10.04;100.00;99927.50;4993737;28;20026;-73
2023/04/19 03:44:44;;;;;;;4.93;1.58;;;;;;;10.08;100.00;99935.31;4993970;28;20030;-74
2023/04/19 03:47:09;;;;;;;2.97;1.67;;;;;;;10.03;100.00;99937.75;4993714;28;20495;-73
2023/04/19 03:49:35;;;;;;;2.95;1.67;;;;;;;9.99;100.00;99930.75;4993390;28;20026;-73
2023/04/19 03:52:00;;;;;;;3.92;1.60;;;;;;;9.99;100.00;99938.50;4993685;28;20033;-72
2023/04/19 03:54:26;;;;;;;2.95;1.80;;;;;;;9.86;100.00;99942.41;4993361;28;20018;-73
2023/04/19 03:56:51;;;;;;;2.33;1.63;;;;;;;9.90;100.00;99936.50;4993549;28;20050;-73
2023/04/19 03:59:16;;;;;;;4.15;1.70;;;;;;;9.37;100.00;99864.38;4993447;28;20062;-72
2023/04/19 04:01:42;;;;;;;4.43;1.80;;;;;;;9.87;100.00;99939.88;4993251;28;20420;-72
2023/04/19 04:04:07;;;;;;;5.15;1.90;;;;;;;9.67;100.00;99891.94;4990384;28;20476;-71
2023/04/19 04:06:34;;;;;;;3.15;1.80;;;;;;;9.92;100.00;99931.38;4987815;28;20042;-70
2023/04/19 04:08:59;;;;;;;2.88;1.67;;;;;;;10.00;100.00;99937.66;4972634;28;20392;-72
2023/04/19 04:11:25;;;;;;;9.35;2.30;;;;;;;10.03;100.00;99940.31;4974731;28;20034;-72
2023/04/19 04:13:50;;;;;;;4.28;2.42;;;;;;;10.10;100.00;99941.41;4983365;28;20105;-70
2023/04/19 04:16:16;;;;;;;3.25;2.35;;;;;;;10.03;100.00;99923.16;4983723;28;20027;-71
2023/04/19 04:18:41;;;;;;;7.22;2.75;;;;;;;10.09;100.00;99939.66;4984667;28;20030;-73
2023/04/19 04:21:07;;;;;;;2.60;2.00;;;;;;;10.12;100.00;99940.63;4982626;28;20373;-72
2023/04/19 04:23:32;;;;;;;3.35;2.13;;;;;;;10.19;100.00;99937.41;4976201;28;20073;-72
2023/04/19 04:26:03;;;;;;;2.67;1.88;;;;;;;10.18;100.00;99948.53;4984704;28;20500;-73
2023/04/19 04:28:28;;;;;;;6.45;2.42;;;;;;;10.24;100.00;99939.22;4993150;28;20031;-72
2023/04/19 04:30:56;;;;;;;3.75;2.03;;;;;;;10.26;100.00;99938.44;4993214;28;20026;-72
2023/04/19 04:33:25;;;;;;;4.20;2.50;;;;;;;10.23;100.00;99937.47;4992864;28;20104;-69
2023/04/19 04:35:52;;;;;;;;;;;;;;;10.28;100.00;99941.06;4993062;28;20069;-74
2023/04/19 04:38:18;;;;;;;2.85;2.08;;;;;;;10.38;100.00;99942.25;4992975;28;20279;-76
2023/04/19 04:40:49;;;;;;;4.20;2.50;;;;;;;10.40;100.00;99946.63;4995880;28;20050;-73
2023/04/19 04:43:14;;;;;;;2.42;1.95;;;;;;;10.44;100.00;99939.84;4973352;28;20034;-72
2023/04/19 04:45:40;;;;;;;3.10;2.10;;;;;;;10.52;100.00;99941.81;4973211;28;20045;-73
2023/04/19 04:48:07;;;;;;;3.30;2.20;;;;;;;10.52;100.00;99946.97;4987907;28;20040;-70
2023/04/19 04:50:33;;;;;;;4.55;2.33;;;;;;;10.57;100.00;99947.13;4992327;28;20034;-70
2023/04/19 04:52:58;;;;;;;4.30;2.50;;;;;;;10.66;100.00;99944.78;4992641;28;20097;-71
2023/04/19 04:55:24;;;;;;;5.10;2.65;;;;;;;10.75;100.00;99927.81;4992444;28;20030;-73
2023/04/19 04:57:49;;;;;;;4.75;2.30;;;;;;;10.68;100.00;99942.28;4990176;28;20058;-71
2023/04/19 05:00:15;;;;;;;6.07;2.50;;;;;;;10.63;100.00;99946.41;4992406;28;20018;-72
2023/04/19 05:02:40;;;;;;;2.33;2.00;;;;;;;10.65;100.00;99949.91;4992303;28;20061;-70
2023/04/19 05:05:06;;;;;;;3.25;2.40;;;;;;;10.71;100.00;99942.34;4992336;28;20634;-74
2023/04/19 05:07:32;;;;;;;4.80;2.60;;;;;;;10.69;100.00;99944.00;4992339;28;20023;-76
2023/04/19 05:09:57;;;;;;;4.28;2.10;;;;;;;10.69;100.00;99938.81;4991118;28;20030;-70
2023/04/19 05:12:22;;;;;;;5.03;2.42;;;;;;;10.73;100.00;99955.28;4992186;28;20037;-71
2023/04/19 05:14:48;;;;;;;4.53;2.30;;;;;;;10.75;100.00;99945.88;4992052;28;20689;-74
2023/04/19 05:17:13;;;;;;;3.17;2.00;;;;;;;10.74;100.00;99946.72;4986629;28;20030;-73
2023/04/19 05:19:39;;;;;;;3.00;2.33;;;;;;;10.71;100.00;99947.50;4978754;28;20411;-73
2023/04/19 05:22:04;;;;;;;4.57;2.28;;;;;;;10.75;100.00;99954.50;4991871;28;20042;-75
2023/04/19 05:24:29;;;;;;;4.07;2.33;;;;;;;10.76;100.00;99948.50;4991631;28;20124;-74
2023/04/19 05:26:55;;;;;;;3.30;2.38;;;;;;;10.79;100.00;99963.19;4972621;28;20027;-75
2023/04/19 05:29:20;;;;;;;2.60;1.90;;;;;;;10.77;100.00;99957.13;4972360;28;20156;-73
2023/04/19 05:31:46;;;;;;;4.00;2.30;;;;;;;10.79;100.00;99955.44;4972185;28;20023;-72
2023/04/19 05:34:11;;;;;;;3.45;2.03;;;;;;;10.69;100.00;99959.47;4986015;28;20058;-69
2023/04/19 05:36:37;;;;;;;6.05;2.45;;;;;;;10.48;100.00;99950.31;4987332;28;20034;-71
2023/04/19 05:39:02;;;;;;;4.55;2.60;;;;;;;10.49;100.00;99954.66;4971937;28;20018;-71
2023/04/19 05:41:29;;;;;;;4.55;2.47;;;;;;;10.56;100.00;99962.56;4985071;28;20030;-72
2023/04/19 05:43:55;;;;;;;4.38;2.35;;;;;;;10.32;100.00;99923.16;4971989;28;20054;-73
2023/04/19 05:46:22;;;;;;;5.60;2.58;;;;;;;10.48;100.00;99942.56;4971874;28;20122;-74
2023/04/19 05:48:48;;;;;;;3.10;2.33;;;;;;;10.54;100.00;99959.06;4983053;28;20036;-71
2023/04/19 05:51:17;;;;;;;3.13;2.13;;;;;;;10.58;100.00;99956.63;4987620;28;20038;-72
2023/04/19 05:53:45;;;;;;;3.83;2.40;;;;;;;10.46;100.00;99948.53;4978339;28;20041;-72
2023/04/19 05:56:10;;;;;;;4.07;2.63;;;;;;;10.51;100.00;99960.72;4986958;28;20488;-72
2023/04/19 05:58:36;;;;;;;5.47;3.15;;;;;;;10.59;100.00;99960.94;4969997;28;20035;-73
2023/04/19 06:01:03;;;;;;;4.10;2.20;;;;;;;10.41;100.00;99938.06;4973261;28;20038;-70
2023/04/19 06:03:29;;;;;;;3.30;1.70;;;;;;;10.39;100.00;99931.97;4979457;28;20489;-71
2023/04/19 06:05:54;;;;;;;4.68;1.83;;;;;;;10.67;100.00;99962.03;4981814;28;20097;-71
2023/04/19 06:08:20;;;;;;;3.10;1.65;;;;;;;10.67;100.00;99956.88;4971283;28;20390;-71
2023/04/19 06:10:48;;;;;;;2.20;1.50;;;;;;;10.68;100.00;99968.94;4971195;28;20049;-71
2023/04/19 06:13:14;;;;;;;2.58;1.70;;;;;;;10.50;100.00;99937.44;4971418;28;20031;-71
2023/04/19 06:15:41;;;;;;;2.28;1.48;;;;;;;10.62;100.00;99963.59;4982244;28;20061;-70
2023/04/19 06:18:09;;;;;;;5.55;2.58;;;;;;;10.64;100.00;99963.66;4990469;28;20041;-69
2023/04/19 06:20:38;;;;;;;4.32;2.80;;;;;;;10.75;100.00;99962.22;4991245;28;20033;-71
2023/04/19 06:23:05;;;;;;;4.32;2.70;;;;;;;10.82;100.00;99960.72;4990328;28;20449;-70
2023/04/19 06:25:31;;;;;;;5.90;4.10;;;;;;;10.81;100.00;99949.50;4990626;28;20034;-68
2023/04/19 06:27:56;;;;;;;4.15;2.78;;;;;;;10.96;100.00;99961.09;4990376;28;20031;-70
2023/04/19 06:30:21;;;;;;;3.55;1.80;;;;;;;10.98;100.00;99962.03;4990528;28;20026;-67
2023/04/19 06:32:47;;;;;;;3.08;1.58;;;;;;;10.95;100.00;99964.50;4990459;28;20027;-69
2023/04/19 06:35:14;;;;;;;3.38;1.40;;;;;;;10.88;100.00;99962.56;4990663;28;20026;-69
2023/04/19 06:37:40;;;;;;;2.13;1.50;;;;;;;10.74;100.00;99972.53;4990414;28;20034;-70
2023/04/19 06:40:07;;;;;;;1.70;1.30;;;;;;;10.74;100.00;99957.03;4990787;28;20057;-70
2023/04/19 06:42:34;;;;;;;1.92;1.27;;;;;;;10.88;100.00;99971.22;4990661;28;20023;-69
2023/04/19 06:45:00;;;;;;;3.40;1.70;;;;;;;10.93;100.00;99959.31;4988867;28;20472;-69
2023/04/19 06:47:26;;;;;;;2.25;1.60;;;;;;;10.84;100.00;99931.53;4990661;28;20019;-70
2023/04/19 06:49:51;;;;;;;1.73;1.40;;;;;;;11.12;100.00;99983.06;4990567;28;20030;-70
2023/04/19 06:52:17;;;;;;;1.52;1.42;;;;;;;11.19;100.00;99977.22;4990253;28;20380;-70
2023/04/19 06:54:49;;;;;;;1.80;1.40;;;;;;;11.20;100.00;99958.28;4989979;28;20038;-70
2023/04/19 06:57:16;;;;;;;2.67;1.60;;;;;;;11.32;100.00;99976.69;4990358;28;20038;-71
2023/04/19 06:59:41;;;;;;;3.40;1.83;;;;;;;11.39;100.00;99980.31;4990154;28;20038;-72
2023/04/19 07:02:06;;;;;;;1.67;1.17;;;;;;;11.09;100.00;99947.69;4990155;28;20477;-67
2023/04/19 07:04:32;;;;;;;4.10;1.73;;;;;;;11.32;100.00;99983.56;4990286;28;20026;-68
2023/04/19 07:06:58;;;;;;;4.53;1.60;;;;;;;11.17;100.00;99974.56;4989676;28;20018;-70
2023/04/19 07:09:23;;;;;;;4.43;2.58;;;;;;;11.26;100.00;99993.75;4990217;28;20122;-69
2023/04/19 07:11:50;;;;;;;3.55;2.30;;;;;;;11.36;100.00;99989.69;4990012;28;20062;-70
2023/04/19 07:14:17;;;;;;;2.55;1.70;;;;;;;11.17;100.00;99963.38;4990084;28;20038;-70
2023/04/19 07:16:44;;;;;;;3.35;1.75;;;;;;;11.40;100.00;99984.66;4989855;28;20038;-70
2023/04/19 07:19:09;;;;;;;4.43;2.13;;;;;;;11.46;100.00;99982.22;4990553;28;20034;-70
2023/04/19 07:21:37;;;;;;;2.10;1.45;;;;;;;11.57;100.00;99995.41;4991721;28;20100;-74
2023/04/19 07:24:02;;;;;;;1.42;1.30;;;;;;;11.61;100.00;99993.78;4994000;28;20054;-70
2023/04/19 07:26:28;;;;;;;2.63;1.63;;;;;;;11.70;100.00;99994.03;4991125;28;20034;-68
2023/04/19 07:28:53;;;;;;;4.57;1.58;;;;;;;11.74;100.00;99998.41;4993431;28;20042;-70
2023/04/19 07:31:20;;;;;;;4.40;1.80;;;;;;;11.80;100.00;100003.75;4993526;28;20026;-67
2023/04/19 07:33:45;;;;;;;2.83;1.48;;;;;;;11.73;100.00;100013.91;4993838;28;20030;-72
2023/04/19 07:36:11;;;;;;;1.83;1.40;;;;;;;11.52;100.00;99980.63;4993192;28;20031;-67
2023/04/19 07:38:37;;;;;;;3.38;1.30;;;;;;;11.74;100.00;100013.94;4993648;28;20092;-68
2023/04/19 07:41:04;;;;;;;2.20;1.42;;;;;;;11.84;100.00;100017.63;4993139;28;20030;-70
2023/04/19 07:43:30;;;;;;;2.58;1.42;;;;;;;11.81;100.00;100015.84;4993009;28;20042;-70
2023/04/19 07:45:55;;;;;;;2.53;1.30;;;;;;;11.94;100.00;100018.72;4993122;28;20084;-70
2023/04/19 07:48:21;;;;;;;4.30;1.67;;;;;;;11.84;100.00;100016.72;4993470;28;20038;-70
2023/04/19 07:50:47;;;;;;;1.65;1.23;;;;;;;11.97;100.00;100026.59;4993208;28;20121;-70
2023/04/19 07:53:13;;;;;;;2.10;1.55;;;;;;;11.88;100.00;100026.34;4993480;28;20464;-68
2023/04/19 07:55:38;;;;;;;3.78;1.50;;;;;;;11.79;100.00;100025.25;4992690;28;20113;-69
2023/04/19 07:58:03;;;;;;;4.45;1.70;;;;;;;11.82;100.00;100024.47;4992748;28;20114;-70
2023/04/19 08:00:29;;;;;;;6.93;1.55;;;;;;;11.91;100.00;100024.72;4992708;28;20105;-70
2023/04/19 08:02:56;;;;;;;1.85;1.38;;;;;;;11.96;100.00;100024.81;4992867;28;20031;-70
2023/04/19 08:05:22;;;;;;;2.00;1.35;;;;;;;11.84;100.00;100017.63;4992605;28;20027;-71
2023/04/19 08:07:47;;;;;;;2.15;1.27;;;;;;;11.93;100.00;100017.84;4992465;28;20030;-69
2023/04/19 08:10:13;;;;;;;3.38;1.30;;;;;;;11.69;100.00;99981.91;4992352;28;20026;-69
2023/04/19 08:12:40;;;;;;;3.55;1.50;;;;;;;12.07;100.00;100032.84;4992516;28;20078;-71
2023/04/19 08:15:25;;;;;;;3.40;1.40;;;;;;;12.16;100.00;100020.13;4992624;28;20034;-73
2023/04/19 08:17:51;;;;;;;3.55;1.60;;;;;;;12.22;100.00;100034.94;4989780;28;20408;-71
2023/04/19 08:20:16;;;;;;;5.38;1.50;;;;;;;12.19;100.00;100024.53;4990121;28;20042;-70
2023/04/19 08:22:42;;;;;;;4.60;1.40;;;;;;;12.05;100.00;99988.84;4989565;28;20062;-69
2023/04/19 08:25:08;;;;;;;2.70;1.48;;;;;;;12.39;100.00;100032.72;4989645;28;20030;-68
2023/04/19 08:27:34;;;;;;;2.88;1.38;;;;;;;12.35;100.00;100033.47;4989835;28;20026;-68
2023/04/19 08:30:00;;;;;;;2.75;1.60;;;;;;;12.48;100.00;100026.88;4989881;28;20915;-71
2023/04/19 08:32:25;;;;;;;1.98;1.33;;;;;;;12.52;100.00;100028.69;4988863;28;20030;-71
2023/04/19 08:34:51;;;;;;;1.67;1.35;;;;;;;12.41;100.00;100018.97;4990024;28;20039;-68
2023/04/19 08:37:17;;;;;;;1.63;1.27;;;;;;;12.37;100.00;99999.03;4989692;28;20038;-71
2023/04/19 08:39:42;;;;;;;2.03;1.50;;;;;;;12.48;100.00;100024.28;4989491;28;20118;-68
2023/04/19 08:42:09;;;;;;;1.77;1.48;;;;;;;12.53;100.00;100007.16;4989649;28;20038;-69
2023/04/19 08:44:39;;;;;;;2.10;1.17;;;;;;;12.56;100.00;100033.97;4989763;28;20113;-70
2023/04/19 08:47:05;;;;;;;1.15;1.05;;;;;;;12.46;100.00;100035.50;4989365;28;20508;-68
2023/04/19 08:49:34;;;;;;;3.60;1.20;;;;;;;12.35;100.00;100016.25;4989554;28;20097;-71
2023/04/19 08:52:00;;;;;;;1.45;1.17;;;;;;;12.55;100.00;100027.03;4989114;28;20038;-71
2023/04/19 08:54:29;;;;;;;2.15;1.60;;;;;;;12.63;100.00;100024.63;4989905;28;20124;-72
2023/04/19 08:56:57;;;;;;;3.95;1.38;;;;;;;12.50;100.00;100012.25;4992073;28;20030;-73
2023/04/19 08:59:23;;;;;;;2.00;1.20;;;;;;;12.42;100.00;100022.44;4992100;28;20026;-69
2023/04/19 09:01:49;;;;;;;4.97;1.48;;;;;;;12.37;100.00;100031.81;4991890;28;20037;-70
2023/04/19 09:04:14;;;;;;;4.97;1.80;;;;;;;12.45;100.00;100028.56;4992413;28;20026;-71
2023/04/19 09:06:40;;;;;;;2.88;1.88;;;;;;;12.50;100.00;100026.06;4991527;28;20027;-71
2023/04/19 09:09:21;;;;;;;3.90;1.30;;;;;;;12.48;100.00;100030.34;4991931;28;20030;-70
2023/04/19 09:11:47;;;;;;;1.38;1.27;;;;;;;12.50;100.00;100030.34;4991429;28;20443;-68
2023/04/19 09:14:14;;;;;;;1.70;1.38;;;;;;;12.52;100.00;100034.72;4991904;28;20030;-70
2023/04/19 09:16:40;;;;;;;2.40;1.13;;;;;;;12.56;100.00;100033.97;4973904;28;20034;-69
2023/04/19 09:19:11;;;;;;;3.40;1.15;;;;;;;12.53;100.00;100020.09;4972097;28;20023;-70
2023/04/19 09:21:37;;;;;;;2.05;1.45;;;;;;;12.43;100.00;100030.22;4972502;28;20030;-69
2023/04/19 09:24:04;;;;;;;4.70;1.42;;;;;;;12.48;100.00;100034.66;4972169;28;20086;-69
2023/04/19 09:26:29;;;;;;;3.58;1.85;;;;;;;12.24;100.00;100028.09;4971722;28;20404;-71
2023/04/19 09:29:05;;;;;;;4.97;2.42;;;;;;;12.22;100.00;100037.50;4983581;28;20057;-70
2023/04/19 09:31:33;;;;;;;2.28;1.40;;;;;;;12.29;100.00;100029.91;4975919;28;20050;-70
2023/04/19 09:34:13;;;;;;;3.45;2.47;;;;;;;12.32;100.00;100021.34;4969989;28;20117;-71
2023/04/19 09:36:39;;;;;;;;;;;;;;;12.46;100.00;100032.00;4972610;28;20156;-71
2023/04/19 09:39:04;;;;;;;1.25;1.00;;;;;;;12.41;100.00;100024.16;4973954;28;20289;-69
2023/04/19 09:41:32;;;;;;;3.63;1.80;;;;;;;12.53;100.00;100025.28;4982534;28;20033;-69
2023/04/19 09:44:14;;;;;;;2.33;1.33;;;;;;;12.58;100.00;100011.56;4971598;28;20146;-71
2023/04/19 09:46:41;;;;;;;2.42;1.02;;;;;;;12.66;100.00;100019.53;4971964;28;20027;-69
2023/04/19 09:49:16;;;;;;;4.82;1.70;;;;;;;12.88;100.00;100022.53;4971813;28;20025;-71
2023/04/19 09:51:41;;;;;;;1.65;1.30;;;;;;;12.78;100.00;99990.38;4971735;28;20035;-71
2023/04/19 09:54:09;;;;;;;5.90;1.60;;;;;;;12.82;100.00;99987.00;4971667;28;20023;-72
2023/04/19 09:56:35;;;;;;;3.30;2.15;;;;;;;13.11;100.00;100018.69;4971650;28;20041;-72
2023/04/19 09:59:02;;;;;;;2.42;1.30;;;;;;;13.12;100.00;100032.50;4971574;28;20023;-70
2023/04/19 10:01:30;;;;;;;2.45;1.45;;;;;;;13.03;100.00;99980.50;4976689;28;20026;-70
2023/04/19 10:03:56;;;;;;;1.30;1.20;;;;;;;13.39;100.00;100005.41;4971283;28;20480;-69
2023/04/19 10:06:22;;;;;;;1.58;1.20;;;;;;;13.56;100.00;100009.16;4971908;28;20041;-71
2023/04/19 10:08:49;;;;;;;2.03;1.50;;;;;;;13.42;100.00;99998.56;4971065;28;20026;-70
2023/04/19 10:11:15;;;;;;;5.32;1.52;;;;;;;13.68;100.00;100036.16;4971076;28;20035;-71
2023/04/19 10:13:42;;;;;;;1.95;1.38;;;;;;;13.63;100.00;100036.06;4971069;28;20082;-69
2023/04/19 10:16:07;;;;;;;2.33;0.80;;;;;;;13.59;100.00;100032.56;4971454;28;20125;-71
2023/04/19 10:18:33;;;;;;;1.15;0.80;;;;;;;13.40;100.00;100026.16;4971512;28;20110;-71
2023/04/19 10:21:05;;;;;;;0.60;0.60;;;;;;;13.14;100.00;99985.91;4971378;28;20037;-73
2023/04/19 10:23:32;;;;;;;2.63;1.00;;;;;;;13.47;100.00;100032.34;4985481;28;20132;-71
2023/04/19 10:25:58;;;;;;;2.28;0.70;;;;;;;13.42;100.00;100021.88;4970309;28;20022;-70
2023/04/19 10:28:26;;;;;;;2.25;0.70;;;;;;;13.45;100.00;100030.59;4975123;28;20031;-71
2023/04/19 10:30:54;;;;;;;1.85;0.82;;;;;;;13.47;100.00;100021.97;4977516;28;20041;-70
2023/04/19 10:33:28;;;;;;;3.10;0.82;;;;;;;13.54;100.00;100018.63;4977350;28;20430;-72
2023/04/19 10:35:58;;;;;;;0.90;0.90;;;;;;;13.64;100.00;100014.47;4981099;28;20484;-74
2023/04/19 10:38:42;;;;;;;4.28;1.20;;;;;;;13.67;100.00;100030.09;4973676;28;20029;-77
2023/04/19 10:41:10;;;;;;;0.82;0.60;;;;;;;13.59;100.00;100018.72;4990133;28;20037;-74
2023/04/19 10:43:38;;;;;;;2.10;1.10;;;;;;;13.69;100.00;100030.13;4990637;28;20034;-73
2023/04/19 10:46:15;;;;;;;2.72;0.77;;;;;;;13.75;100.00;100018.13;4990896;28;20042;-71
2023/04/19 10:48:55;;;;;;;0.85;0.80;;;;;;;13.92;100.00;100020.13;4991441;28;20093;-73
2023/04/19 10:51:32;;;;;;;0.60;0.45;;;;;;;13.84;100.00;100029.50;4990537;28;20034;-72
2023/04/19 10:54:08;;;;;;;0.68;0.43;;;;;;;13.86;100.00;100022.63;4990242;28;20813;-71
2023/04/19 10:56:34;;;;;;;1.55;0.40;;;;;;;13.89;100.00;100025.25;4980275;28;20128;-73
2023/04/19 10:59:10;;;;;;;0.60;0.60;;;;;;;13.93;100.00;100023.59;4979369;28;20513;-73
2023/04/19 11:01:44;;;;;;;0.50;0.50;;;;;;;13.92;100.00;100012.34;4981057;28;20061;-73
2023/04/19 11:04:11;;;;;;;0.98;0.77;;;;;;;14.08;100.00;100023.81;4980091;28;20034;-72
2023/04/19 11:07:06;;;;;;;0.95;0.40;;;;;;;14.21;100.00;100019.72;4977888;28;20038;-71
2023/04/19 11:09:33;;;;;;;0.85;0.85;;;;;;;14.31;100.00;100013.78;4974131;28;20031;-72
2023/04/19 11:12:01;;;;;;;0.60;0.60;;;;;;;14.49;100.00;100023.56;4974535;28;20138;-70
2023/04/19 11:14:33;;;;;;;1.23;0.57;;;;;;;14.33;100.00;99978.34;4975211;28;20109;-72
2023/04/19 11:16:59;;;;;;;0.80;0.75;;;;;;;14.59;100.00;100010.69;4974713;28;20034;-74
2023/04/19 11:19:25;;;;;;;0.80;0.70;;;;;;;14.75;100.00;100022.19;4974595;28;20917;-72
2023/04/19 11:21:50;;;;;;;1.83;0.70;;;;;;;14.89;100.00;99999.84;4984809;28;20169;-69